SBMQ/MCP METAR and TAF weather

Enter ICAO airport designator
Station Type Date Time Source
SBMQ METAR 2024/04/18 06:00 UTC NOAA

SBMQ 180600Z 33004KT 9999 BKN004 SCT046 BKN100 26/25 Q1009


Station Type Date Time Source
SBMQ Decoded METAR 2024/04/18 06:00 UTC NOAA

Macapa, Brazil (SBMQ) 00-02N 050-03W
Apr 18, 2024 - 02:00 AM EDT / 2024.04.18 0600 UTC
Wind: from the NNW (330 degrees) at 5 MPH (4 KT):0
Visibility: greater than 7 mile(s):0
Sky conditions: mostly cloudy
Temperature: 78 F (26 C)
Dew Point: 77 F (25 C)
Relative Humidity: 94%
Pressure (altimeter): 29.80 in. Hg (1009 hPa)
ob: SBMQ 180600Z 33004KT 9999 BKN004 SCT046 BKN100 26/25 Q1009
cycle: 6

Station Type Date Time Source
SBMQ TAF 2024/04/18 18:47 UTC NOAA